AirNav   Pilot Hours Calculator
 
 1343 users online  

92FL Lake Willis Heliport
Orlando, Florida, USA

GOING TO ORLANDO?


FAA INFORMATION EFFECTIVE 05 DECEMBER 2019

Location

FAA Identifier: 92FL
Lat/Long: 28-23-39.7200N 081-28-34.6900W
28-23.662000N 081-28.578167W
28.3943667,-81.4763028
(estimated)
Elevation: 108 ft. / 33 m (estimated)
Time zone: UTC -5 (UTC -4 during Daylight Saving Time)
Zip code: 32821

Heliport Operations

Heliport use: Private use. Permission required prior to landing
Activation date: 07/2016
Control tower: no
ARTCC: JACKSONVILLE CENTER
FSS: SAINT PETERSBURG FLIGHT SERVICE STATION
Attendance: 
Wind indicator: yes
Segmented circle: no

Heliport Communications

WX AWOS-3PT at ISM (7 nm S): 128.775 (407-847-0533)
WX ASOS at MCO (9 nm E): PHONE 407-855-5235
WX ASOS at ORL (12 nm NE): PHONE 407-658-6753

Nearby radio navigation aids

VOR radial/distance  VOR name  Freq  Var
ORLr220/11.6ORLANDO VORTAC112.2000E
LALr048/37.5LAKELAND VORTAC116.0001E

Heliport Services

Runway Information

Helipad H1

Dimensions: 60 x 60 ft. / 18 x 18 m
Surface: turf, in good condition
Traffic pattern: leftleft

Heliport Ownership and Management from official FAA records

Ownership: Privately-owned
Owner: NORBERTO DUARTE
7024 LAKE WILLIS DR
ORLANDO, FL 32821
Phone 407-948-9610
Manager: 7024 LAKE WILLIS DR
ORLANDO, FL 32821
Phone 407-948-9610

Heliport Operational Statistics

Aircraft based on the field: 1
Helicopters: 1
    

Additional Remarks

DAY VFR ONLY
ALL HELICOPTER INGRESS/EGRESS ROUTE OPERATIONS ARE CONDUCTED IN AN AREA OF 315(MAGNETIC) CLOCKWISE TO 325 USING THE TLOF AS THE CENTER OF A COMPASS ROSE. THE AREA 326 CLOCKWISE 314 IS UNUSABLE DUE TO MULTIPLE OBSTACLES.
RECOMMEND NO CURVED APPROACHES. BASIC "T" PATTERN FOR BOTH EGRESS/INGRESS ROUTES WITH TURNS EXECUTED NORTHWEST OF THE COVERED BOAT DOCK OF PROPERTY.
FOR CD CTC ORLANDO APCH AT 407-852-7553.

Instrument Procedures

There are no published instrument procedures at 92FL.

Some nearby airports with instrument procedures:

KISM - Kissimmee Gateway Airport (7 nm S)
KMCO - Orlando International Airport (9 nm E)
KORL - Executive Airport (12 nm NE)
X04 - Orlando Apopka Airport (20 nm N)
KGIF - Winter Haven Regional Airport (25 nm SW)
 
Loc | Ops | Rwys | IFR | FBO | Links
Com | Nav | Svcs | Stats | Notes
Aerial photo
No photo
 
Airport distance calculator
Flying to Lake Willis Heliport? Find the distance to fly.

From to 92FL

Sunrise and sunset
Times for 06-Dec-2019
 Local
(UTC-5)
 Zulu
(UTC)
Morning civil twilight06:4011:40
Sunrise07:0612:06
Sunset17:2822:28
Evening civil twilight17:5422:54

Current date and time
Zulu (UTC)  06-Dec-2019 15:26:14
Local (UTC-5)  06-Dec-2019 10:26:14
 
METAR
KISM 
7nm S 
061456Z 00000KT 10SM CLR 19/11 A3023 RMK AO2 SLP236 T01940106 51011
KMCO 
8nm E 
061453Z 02005KT 10SM FEW150 SCT250 19/09 A3022 RMK AO2 SLP230 T01940089 51010
KORL 
12nm NE 
061453Z 01005KT 10SM CLR 19/07 A3022 RMK AO2 SLP237 T01890072 51012
TAF
KISM 
7nm S 
061128Z 0612/0712 VRB03KT P6SM BKN250 FM061600 17006KT P6SM FEW040 SCT250 FM062100 24006KT P6SM SCT040 BKN250 FM070000 27005KT P6SM SCT250
KMCO 
8nm E 
061128Z 0612/0718 VRB03KT P6SM BKN250 FM061600 19006KT P6SM FEW040 SCT250 FM062100 22006KT P6SM SCT040 BKN250 FM070000 VRB04KT P6SM SCT250 FM071500 02006KT P6SM SCT250
NOTAMs
Click for the latest NOTAMs
NOTAMs are issued by the DoD/FAA and will open in a separate window not controlled by AirNav.

 

 
 

Would you like to see your business listed on this page?

 If your business provides an interesting product or service to pilots, flight crews, aircraft, or users of the Lake Willis Heliport, you should consider listing it here.  To start the listing process, click on the button below
 
Add a business
 

Other Pages about Lake Willis Heliport

Update a link
 
Copyright © AirNav, LLC. All rights reserved. Privacy Policy  Contact